Flight Track Log - Related Links

Times and Time Zones

All times are in EDT time to prevent confusion due to time zone crossing. See the UAL252 flight status page for this flight to view local times or setup timezone preferences in your user account.

Time Position Orientation Groundspeed Altitude Reporting Facility
EDT Latitude Longitude Course Direction KTS MPH feet Rate Location/Type
Thu 05:21:16 PM 32.7558 -117.2753 288° West 195 224 2,900  Level Los Center
Thu 05:22:00 PM 32.6169 -117.0676 103° East  Level FlightAware
Thu 05:22:19 PM 32.7092 -117.3153 216° Southwest 244 281 5,400  Level Los Center
Thu 05:23:00 PM 32.6032 -116.9320 84° East  Level FlightAware
Thu 05:23:21 PM 32.6528 -117.2550 138° Southeast 266 306 8,200  Level Los Center
Thu 05:24:00 PM 32.6157 -116.7946 84° East  Level FlightAware
Thu 05:24:23 PM 32.6317 -117.1364 102° East 306 352 10,900  Level Los Center
Thu 05:25:00 PM 32.6333 -116.6592 90° East  Level FlightAware
Thu 05:25:25 PM 32.6122 -117.0175 101° East 360 414 12,100  Level Los Center
Thu 05:26:27 PM 32.6150 -116.8878 89° East 401 461 14,700 2,496 Climbing Los Center
Thu 05:27:30 PM 32.6319 -116.7603 81° East 398 458 17,300 1,968 Climbing Los Center
Thu 05:28:32 PM 32.6472 -116.6264 82° East 404 465 18,800 1,790 Climbing Los Center
Thu 05:29:34 PM 32.6619 -116.4567 84° East 432 497 21,000 1,742 Climbing Los Center
Thu 05:30:36 PM 32.6733 -116.3114 85° East 447 514 22,400 1,452 Climbing Los Center
Thu 05:31:38 PM 32.6897 -116.1619 83° East 460 529 24,000 1,500 Climbing Los Center
Thu 05:32:40 PM 32.7036 -116.0072 84° East 473 544 25,500 1,645 Climbing Los Center
Thu 05:33:42 PM 32.7214 -115.8186 84° East 481 554 27,400 1,296 Climbing Los Center
Thu 05:35:22 PM 32.7397 -115.5750 85° East 512 589 29,000 1,104 Climbing Albuquerque Center
Thu 05:35:47 PM 32.7500 -115.4925 82° East 503 579 29,700 1,310 Climbing Los Center
Thu 05:36:49 PM 32.7536 -115.3272 88° East 504 580 30,900 1,258 Climbing Los Center
Thu 05:37:51 PM 32.7600 -115.1619 87° East 502 578 32,300 1,452 Climbing Los Center
Thu 05:38:53 PM 32.7631 -114.9653 89° East 495 570 33,900 1,452 Climbing Los Center
Thu 05:39:55 PM 32.7675 -114.8036 88° East 490 564 35,300 1,210 Climbing Los Center
Thu 05:40:57 PM 32.7697 -114.6442 89° East 484 557 36,400 774 Climbing Los Center
Thu 05:41:59 PM 32.7717 -114.4842 89° East 484 557 36,900 242 Climbing Los Center
Thu 05:43:01 PM 32.7742 -114.3250 89° East 482 555 36,900  Level Los Center
Thu 05:44:39 PM 32.7772 -114.0514 89° East 485 558 36,900  Level Albuquerque Center
Thu 05:45:06 PM 32.7786 -113.9731 89° East 485 558 36,900 67 Level Los Center
Thu 05:46:08 PM 32.8000 -113.8144 81° East 486 559 37,000 48 Climbing Los Center
Thu 05:47:10 PM 32.8228 -113.6558 80° East 487 560 37,000  Level Los Center
Thu 05:47:44 PM 32.8342 -113.5725 81° East 490 564 37,000  Level Albuquerque Center
Thu 05:48:47 PM 32.8572 -113.4119 80° East 489 563 37,000 -48 Level Albuquerque Center
Thu 05:49:48 PM 32.8786 -113.2514 81° East 490 564 36,900  Descending Albuquerque Center
Thu 05:50:50 PM 32.9006 -113.0917 81° East 488 562 37,000  Climbing Albuquerque Center
Thu 05:51:52 PM 32.9275 -112.8997 80° East 487 560 36,900  Descending Albuquerque Center
Thu 05:52:53 PM 32.9481 -112.7392 81° East 488 562 37,000 49 Climbing Albuquerque Center
Thu 05:53:55 PM 32.9428 -112.5786 92° East 485 558 37,000  Level Albuquerque Center
Thu 05:54:57 PM 32.9181 -112.4228 101° East 479 551 37,000 -48 Level Albuquerque Center
Thu 05:55:59 PM 32.8939 -112.2681 100° East 476 548 36,900  Descending Albuquerque Center
Thu 05:57:01 PM 32.8697 -112.1053 100° East 474 545 37,000 48 Climbing Albuquerque Center
Thu 05:58:03 PM 32.8467 -111.9525 100° East 472 543 37,000  Level Albuquerque Center
Thu 05:59:05 PM 32.8222 -111.7994 101° East 472 543 37,000  Level Albuquerque Center
Thu 06:00:06 PM 32.7986 -111.6494 101° East 467 537 37,000  Level Albuquerque Center
Thu 06:01:08 PM 32.7692 -111.4678 101° East 469 540 37,000  Level Albuquerque Center
Thu 06:02:10 PM 32.7450 -111.3153 101° East 471 542 37,000  Level Albuquerque Center
Thu 06:03:12 PM 32.7194 -111.1653 101° East 468 539 37,000  Level Albuquerque Center
Thu 06:04:14 PM 32.6944 -111.0119 101° East 472 543 37,000  Level Albuquerque Center
Thu 06:05:16 PM 32.6694 -110.8600 101° East 473 544 37,000  Level Albuquerque Center
Thu 06:06:17 PM 32.6439 -110.7086 101° East 472 543 37,000  Level Albuquerque Center
Thu 06:07:19 PM 32.6136 -110.5264 101° East 471 542 37,000  Level Albuquerque Center
Thu 06:08:21 PM 32.5875 -110.3794 102° East 463 533 37,000  Level Albuquerque Center
Thu 06:09:23 PM 32.5628 -110.2278 101° East 462 532 37,000  Level Albuquerque Center
Thu 06:10:25 PM 32.5328 -110.0803 104° East 465 535 37,000  Level Albuquerque Center
Thu 06:11:27 PM 32.4942 -109.9367 108° East 463 533 37,000  Level Albuquerque Center
Thu 06:12:29 PM 32.4553 -109.7919 108° East 464 534 37,000  Level Albuquerque Center
Thu 06:13:30 PM 32.4086 -109.6175 108° East 469 540 37,000 -49 Level Albuquerque Center
Thu 06:14:32 PM 32.3722 -109.4753 107° East 465 535 36,900  Descending Albuquerque Center
Thu 06:15:34 PM 32.3353 -109.3325 107° East 461 531 37,000 48 Climbing Albuquerque Center
Thu 06:16:36 PM 32.2911 -109.1925 110° East 459 528 37,000  Level Albuquerque Center
Thu 06:17:38 PM 32.2361 -109.0258 111° Southeast 459 528 37,000  Level Albuquerque Center
Thu 06:18:40 PM 32.1847 -108.8883 114° Southeast 462 532 37,000  Level Albuquerque Center
Thu 06:19:41 PM 32.1311 -108.7533 115° Southeast 461 531 37,000  Level Albuquerque Center
Thu 06:20:43 PM 32.0647 -108.6275 122° Southeast 456 525 37,000  Level Albuquerque Center
Thu 06:21:45 PM 31.9972 -108.5006 122° Southeast 460 529 37,000  Level Albuquerque Center
Thu 06:22:47 PM 31.9619 -108.3264 103° East 461 531 37,000  Level Albuquerque Center
Thu 06:23:49 PM 31.9519 -108.1775 94° East 460 529 37,000 -48 Level Albuquerque Center
Thu 06:24:51 PM 31.9417 -108.0153 94° East 462 532 36,900 -48 Descending Albuquerque Center
Thu 06:25:53 PM 31.9319 -107.8647 94° East 462 532 36,900  Level Albuquerque Center
Thu 06:26:55 PM 31.9219 -107.7144 94° East 463 533 36,900 49 Level Albuquerque Center
Thu 06:27:56 PM 31.9117 -107.5636 95° East 466 536 37,000 49 Climbing Albuquerque Center
Thu 06:28:58 PM 31.9011 -107.4128 95° East 466 536 37,000  Level Albuquerque Center
Thu 06:30:00 PM 31.8900 -107.2614 95° East 468 539 37,000 -48 Level Albuquerque Center
Thu 06:31:02 PM 31.8783 -107.0828 94° East 462 532 36,900 -48 Descending Albuquerque Center
Thu 06:32:04 PM 31.8669 -106.9333 95° East 462 532 36,900  Level Albuquerque Center
Thu 06:33:06 PM 31.8558 -106.7844 95° East 461 531 36,900  Level Albuquerque Center
Thu 06:34:07 PM 31.8442 -106.6372 95° East 456 525 36,900  Level Albuquerque Center
Thu 06:35:09 PM 31.8314 -106.4739 95° East 462 532 36,900 48 Level Albuquerque Center
Thu 06:36:11 PM 31.8214 -106.3233 94° East 464 534 37,000 48 Climbing Albuquerque Center
Thu 06:37:13 PM 31.8042 -106.1742 98° East 465 535 37,000 -48 Level Albuquerque Center
Thu 06:38:15 PM 31.7856 -106.0292 99° East 452 520 36,900 -48 Descending Albuquerque Center
Thu 06:39:17 PM 31.7681 -105.8822 98° East 453 521 36,900 49 Level Albuquerque Center
Thu 06:40:18 PM 31.7472 -105.7036 98° East 459 528 37,000 49 Climbing Albuquerque Center
Thu 06:41:20 PM 31.7286 -105.5542 98° East 461 531 37,000  Level Albuquerque Center
Thu 06:42:22 PM 31.7106 -105.4039 98° East 464 534 37,000  Level Albuquerque Center
Thu 06:43:24 PM 31.6925 -105.2564 98° East 457 526 37,000 -48 Level Albuquerque Center
Thu 06:44:26 PM 31.6731 -105.1081 99° East 457 526 36,900 -49 Descending Albuquerque Center
Thu 06:45:27 PM 31.6544 -104.9594 98° East 459 528 36,900 49 Level Albuquerque Center
Thu 06:46:29 PM 31.6364 -104.8094 98° East 461 531 37,000 48 Climbing Albuquerque Center
Thu 06:47:31 PM 31.6158 -104.6594 99° East 464 534 37,000  Level Albuquerque Center
Thu 06:48:33 PM 31.5931 -104.4789 98° East 465 535 37,000  Level Albuquerque Center
Thu 06:49:34 PM 31.5739 -104.3283 98° East 467 537 37,000 439 Level Albuquerque Center
Thu 06:50:36 PM 31.5539 -104.1781 99° East 466 536 37,900 726 Climbing Albuquerque Center
Thu 06:51:38 PM 31.5333 -104.0292 99° East 464 534 38,500 488 Climbing Albuquerque Center
Thu 06:52:39 PM 31.5144 -103.8786 98° East 466 536 38,900 244 Climbing Albuquerque Center
Thu 06:53:41 PM 31.4914 -103.7217 100° East 463 533 39,000 48 Climbing Albuquerque Center
Thu 06:54:43 PM 31.4719 -103.5742 99° East 462 532 39,000  Level Albuquerque Center
Thu 06:55:44 PM 31.4508 -103.4244 99° East 466 536 39,000  Level Albuquerque Center
Thu 06:56:46 PM 31.4314 -103.2733 99° East 468 539 39,000  Level Albuquerque Center
Thu 06:57:48 PM 31.4089 -103.0914 98° East 470 541 39,000 -48 Level Albuquerque Center
Thu 06:58:50 PM 31.3897 -102.9397 98° East 472 543 38,900 -49 Descending Albuquerque Center
Thu 06:59:51 PM 31.3697 -102.7881 99° East 472 543 38,900 49 Level Albuquerque Center
Thu 07:00:53 PM 31.3514 -102.6356 98° East 472 543 39,000 33 Climbing Albuquerque Center
Thu 07:02:52 PM 31.3119 -102.3394 99° East 471 542 39,000  Level Houston Center
Thu 07:03:58 PM 31.2936 -102.1842 98° East 467 537 39,000 47 Level Albuquerque Center
Thu 07:05:00 PM 31.2917 -101.9997 91° East 473 544 39,100  Climbing Albuquerque Center
Thu 07:05:58 PM 31.2897 -101.8608 91° East 468 539 39,000 -100 Descending Houston Center
Thu 07:07:00 PM 31.2858 -101.7089 92° East 468 539 38,900 -48 Descending Houston Center
Thu 07:08:02 PM 31.2814 -101.5583 92° East 467 537 38,900 48 Level Houston Center
Thu 07:09:04 PM 31.2556 -101.4117 102° East 462 532 39,000  Climbing Houston Center
Thu 07:10:06 PM 31.2286 -101.2369 100° East 457 526 38,900 -48 Descending Houston Center
Thu 07:11:08 PM 31.2097 -101.1114 100° East 455 524 38,900  Level Houston Center
Thu 07:12:10 PM 31.1892 -100.9325 98° East 459 528 38,900 48 Level Houston Center
Thu 07:13:12 PM 31.1464 -100.7903 109° East 462 532 39,000 48 Climbing Houston Center
Thu 07:14:14 PM 31.1011 -100.6519 111° Southeast 458 527 39,000  Level Houston Center
Thu 07:15:16 PM 31.0464 -100.5192 116° Southeast 455 524 39,000 -48 Level Houston Center
Thu 07:16:18 PM 30.9933 -100.3844 115° Southeast 457 526 38,900 -48 Descending Houston Center
Thu 07:17:21 PM 30.9436 -100.2494 113° Southeast 455 524 38,900 48 Level Houston Center
Thu 07:18:22 PM 30.9117 -100.1042 104° East 461 531 39,000  Climbing Houston Center
Thu 07:19:24 PM 30.8717 -99.9325 105° East 459 528 38,900  Descending Houston Center
Thu 07:20:26 PM 30.8394 -99.7878 105° East 461 531 39,000 48 Climbing Houston Center
Thu 07:21:28 PM 30.8067 -99.6425 105° East 463 533 39,000 -48 Level Houston Center
Thu 07:22:30 PM 30.7808 -99.4956 102° East 463 533 38,900  Descending Houston Center
Thu 07:23:32 PM 30.7711 -99.3450 94° East 467 537 39,000  Climbing Houston Center
Thu 07:24:33 PM 30.7803 -99.1947 86° East 468 539 38,900  Descending Houston Center
Thu 07:25:35 PM 30.7906 -99.0261 86° East 470 541 39,000 48 Climbing Houston Center
Thu 07:26:37 PM 30.7969 -98.8714 87° East 476 548 39,000 48 Level Houston Center
Thu 07:27:39 PM 30.7986 -98.7161 89° East 476 548 39,100  Climbing Houston Center
Thu 07:28:41 PM 30.8011 -98.5606 89° East 476 548 39,000 -49 Descending Houston Center
Thu 07:29:42 PM 30.8050 -98.4047 88° East 476 548 39,000  Level Houston Center
Thu 07:30:44 PM 30.8083 -98.2489 89° East 479 551 39,000  Level Houston Center
Thu 07:31:46 PM 30.8097 -98.0644 89° East 484 557 39,000  Level Houston Center
Thu 07:32:48 PM 30.8128 -97.9078 89° East 483 556 39,000  Level Houston Center
Thu 07:33:49 PM 30.8139 -97.7511 89° East 482 555 39,000 -195 Level Houston Center
Thu 07:34:51 PM 30.8158 -97.5947 89° East 481 554 38,600 -677 Descending Houston Center
Thu 07:35:53 PM 30.8167 -97.4375 90° East 485 558 37,600 -976 Descending Houston Center
Thu 07:36:54 PM 30.8172 -97.2750 90° East 510 587 36,600 -1,122 Descending Houston Center
Thu 07:37:56 PM 30.7969 -97.0919 97° East 509 586 35,300 -2,274 Descending Houston Center
Thu 07:38:58 PM 30.7558 -96.9381 107° East 500 575 31,900 -2,903 Descending Houston Center
Thu 07:40:00 PM 30.7136 -96.7858 108° East 496 571 29,300 -2,537 Descending Houston Center
Thu 07:41:01 PM 30.6733 -96.6383 108° East 482 555 26,700 -2,439 Descending Houston Center
Thu 07:42:03 PM 30.6358 -96.4997 107° East 455 524 24,300 -2,274 Descending Houston Center
Thu 07:43:05 PM 30.5983 -96.3689 108° East 428 493 22,000 -2,293 Descending Houston Center
Thu 07:44:06 PM 30.5628 -96.2450 108° East 405 466 19,600 -2,553 Descending Houston Center
Thu 07:44:39 PM 30.5403 -96.1681 109° East 391 450 18,000 -2,419 Descending Houston Center
Thu 07:45:08 PM 30.5294 -96.1261 107° East 389 448 17,100 -2,500 Descending Houston Center
Thu 07:45:39 PM 30.5075 -96.0531 109° East 375 432 15,500 -2,419 Descending Houston Center
Thu 07:46:10 PM 30.4933 -96.0061 109° East 371 427 14,600 -2,262 Descending Houston Center
Thu 07:46:40 PM 30.4767 -95.9403 106° East 362 417 13,200 -1,869 Descending Houston Center
Thu 07:47:11 PM 30.4625 -95.8958 110° East 362 417 12,700 -1,286 Descending Houston Center
Thu 07:47:36 PM 30.4350 -95.8458 123° Southeast 358 412 12,000 -677 Descending Houston Center
Thu 07:48:13 PM 30.4019 -95.8097 137° Southeast 355 409 12,000 -179 Level Houston Center
Thu 07:48:43 PM 30.3539 -95.7583 137° Southeast 357 411 11,800 -484 Descending Houston Center
Thu 07:49:15 PM 30.3283 -95.7306 137° Southeast 358 412 11,500 -873 Descending Houston Center
Thu 07:49:38 PM 30.2867 -95.6889 139° Southeast 356 410 11,000 -1,065 Descending Houston Center
Thu 07:50:17 PM 30.2406 -95.6397 137° Southeast 355 409 10,400 -885 Descending Houston Center
Thu 07:50:39 PM 30.2125 -95.6106 138° Southeast 350 403 10,100 -393 Descending Houston Center
Thu 07:51:18 PM 30.1736 -95.5700 138° Southeast 333 383 10,000 -627 Descending Houston Center
Thu 07:51:46 PM 30.1456 -95.5411 138° Southeast 281 323 9,400 -1,548 Descending Houston Center
Thu 07:52:20 PM 30.1147 -95.5083 137° Southeast 293 337 8,400 -1,672 Descending Houston Center
Thu 07:52:47 PM 30.1050 -95.4639 104° East 281 323 7,700 -1,452 Descending Houston Center
Thu 07:53:22 PM 30.1061 -95.4219 88° East 284 327 6,900 -1,574 Descending Houston Center
Thu 07:53:48 PM 30.1056 -95.3769 91° East 277 319 6,100 -871 Descending Houston Center
Thu 07:54:24 PM 30.1069 -95.3339 88° East 276 318 6,000 -98 Descending Houston Center
Thu 07:54:49 PM 30.1056 -95.2875 92° East 259 298 6,000 -98 Level Houston Center
Thu 07:55:25 PM 30.1056 -95.2494 90° East 268 308 5,900 -436 Descending Houston Center
Thu 07:55:44 PM 30.0928 -95.2167 114° Southeast 247 284 5,600 -968 Descending Houston Center
Thu 07:56:27 PM 30.0736 -95.1800 121° Southeast 250 288 4,900 -977 Descending Houston Center

Login

Don't have an account? Register now (free) for customized features, flight alerts, and more!